Dubai Beauty — V7VO6 — position and weather

sailwx.info

Track history (hours):
 
Tides and Currents Weather Stations Pressure Air Temp Water Temp Dewpoint Dewpoint Depression Visibility Wind Speed Wind Dir Waves Ship Positions

Dubai Beauty

Last reported at 2018-Feb-24 02:30 UTC. Time now 2018-Feb-24 16:31 UTC.
Position N 71°03' E 030°26'.

Length 250 m; draft 8 m.

Type: Tanker. MMSI: 538004173.

Date/timePositionNaut miles runAvg speedWind from/ knotsBaromVisibWave heightAir tempDewpointWater temp
2018-Feb-24 02:30N 71°03' E 030°26'5 9.2
2018-Feb-24 02:00N 71°05' E 030°13'5 9.3
2018-Feb-24 01:30N 71°08' E 030°02'5 9.2
2018-Feb-24 00:59N 71°11' E 029°51'4 8.9
2018-Feb-24 00:30N 71°14' E 029°42'4 8.7
2018-Feb-24 00:00N 71°17' E 029°31'4 8.6
2018-Feb-23 23:30N 71°19' E 029°20'131 8.5
2018-Feb-23 08:13N 71°28' E 022°32'2 8.2
2018-Feb-23 07:59N 71°27' E 022°26'4 7.9
2018-Feb-23 07:30N 71°26' E 022°15'4 8.0
2018-Feb-23 07:00N 71°25' E 022°03'4 8.0
2018-Feb-23 06:30N 71°23' E 021°52'510.7
2018-Feb-23 06:00N 71°21' E 021°36'713.4
2018-Feb-23 05:30N 71°18' E 021°17'510.8
2018-Feb-23 05:00N 71°16' E 021°02'4 8.6
2018-Feb-23 04:31N 71°14' E 020°49'4 8.4
2018-Feb-23 04:00N 71°13' E 020°38'4 8.6
2018-Feb-23 03:30N 71°11' E 020°26'4 8.2
2018-Feb-23 03:00N 71°09' E 020°14'4 7.7
2018-Feb-23 02:30N 71°07' E 020°03'4 8.0
2018-Feb-23 02:00N 71°06' E 019°52'  
2018-Feb-19 19:18N 61°21' E 004°12'5310.1
2018-Feb-19 14:01N 60°28' E 004°13'0 8.3
2018-Feb-19 14:00N 60°28' E 004°13'5 8.5
2018-Feb-19 13:26N 60°23' E 004°12'4 9.7
2018-Feb-19 13:01N 60°19' E 004°12'813.8
2018-Feb-19 12:25N 60°10' E 004°12'7610.7
2018-Feb-19 05:18N 58°55' E 004°24'411.5
2018-Feb-19 04:59N 58°52' E 004°28'511.1
2018-Feb-19 04:30N 58°48' E 004°35'610.9
2018-Feb-19 03:58N 58°44' E 004°44'510.7
2018-Feb-19 03:28N 58°40' E 004°50'510.7
2018-Feb-19 02:59N 58°36' E 004°57'611.7
2018-Feb-19 02:30N 58°32' E 005°04'611.6
2018-Feb-19 02:00N 58°28' E 005°11'611.5
2018-Feb-19 01:29N 58°23' E 005°19'611.9
2018-Feb-19 01:00N 58°19' E 005°28'611.9
2018-Feb-19 00:30N 58°15' E 005°36'611.6
2018-Feb-19 00:00N 58°12' E 005°44'611.3
2018-Feb-18 23:30N 58°08' E 005°52'611.5
2018-Feb-18 23:00N 58°04' E 006°00'611.4
2018-Feb-18 22:30N 58°00' E 006°08'611.6
2018-Feb-18 22:00N 57°57' E 006°17'611.6
2018-Feb-18 21:30N 57°53' E 006°25'611.2
2018-Feb-18 20:59N 57°49' E 006°33'510.7
2018-Feb-18 20:30N 57°46' E 006°42'511.2
2018-Feb-18 20:00N 57°46' E 006°52'611.2
2018-Feb-18 19:30N 57°45' E 007°02'611.0
2018-Feb-18 19:00N 57°45' E 007°13'510.6
2018-Feb-18 18:29N 57°45' E 007°23'511.2
2018-Feb-18 18:00N 57°45' E 007°33'611.2
2018-Feb-18 17:30N 57°45' E 007°44'611.3
2018-Feb-18 17:00N 57°45' E 007°54'611.6
2018-Feb-18 16:30N 57°45' E 008°05'6810.6
2018-Feb-18 10:04N 57°49' E 010°13'310.0
2018-Feb-18 09:48N 57°48' E 010°18'310.4
2018-Feb-18 09:29N 57°49' E 010°24'510.6
2018-Feb-18 08:58N 57°50' E 010°34'510.6
2018-Feb-18 08:30N 57°50' E 010°43'5 9.9
2018-Feb-18 08:00N 57°47' E 010°51'611.7
2018-Feb-18 07:30N 57°43' E 010°58'714.6
2018-Feb-18 07:00N 57°38' E 011°07'714.9
2018-Feb-18 06:30N 57°33' E 011°18'714.3
2018-Feb-18 06:00N 57°27' E 011°27'714.5
2018-Feb-18 05:30N 57°20' E 011°31'714.1
2018-Feb-18 05:00N 57°14' E 011°35'714.3
2018-Feb-18 04:30N 57°07' E 011°40'714.2
2018-Feb-18 04:00N 57°00' E 011°44'714.4
2018-Feb-18 03:30N 56°54' E 011°48'2514.3
2018-Feb-18 01:45N 56°30' E 012°01'514.1
2018-Feb-18 01:24N 56°26' E 012°06'614.0
2018-Feb-18 01:00N 56°21' E 012°13'714.1
2018-Feb-18 00:30N 56°16' E 012°21'714.3
2018-Feb-18 00:00N 56°10' E 012°28'611.2
2018-Feb-17 23:30N 56°06' E 012°35'713.5
2018-Feb-17 23:00N 55°60' E 012°41'612.8
2018-Feb-17 22:30N 55°54' E 012°40'713.5
2018-Feb-17 22:00N 55°47' E 012°43'714.3
2018-Feb-17 21:30N 55°40' E 012°41'4 8.7
2018-Feb-17 21:00N 55°36' E 012°42'4 7.7
2018-Feb-17 20:30N 55°32' E 012°43'612.4
2018-Feb-17 20:00N 55°26' E 012°41'713.3
2018-Feb-17 19:30N 55°19' E 012°40'713.4
2018-Feb-17 19:00N 55°16' E 012°51'713.6
2018-Feb-17 18:30N 55°15' E 013°03'713.7
2018-Feb-17 18:00N 55°15' E 013°15'713.8
2018-Feb-17 17:31N 55°14' E 013°27'813.4
2018-Feb-17 16:57N 55°14' E 013°40'613.6
2018-Feb-17 16:30N 55°13' E 013°51'813.7
2018-Feb-17 15:53N 55°13' E 014°06'513.6
2018-Feb-17 15:30N 55°12' E 014°14'713.5
2018-Feb-17 15:00N 55°11' E 014°26'714.3
2018-Feb-17 14:30N 55°15' E 014°36'713.9
2018-Feb-17 13:59N 55°20' E 014°46'4 7.6
2018-Feb-17 13:31N 55°22' E 014°51'5 9.1
2018-Feb-17 13:00N 55°24' E 014°58'511.1
2018-Feb-17 12:31N 55°27' E 015°06'611.2
2018-Feb-17 12:00N 55°30' E 015°15'511.0
2018-Feb-17 11:31N 55°33' E 015°23'511.0
2018-Feb-17 11:01N 55°36' E 015°31'510.9
2018-Feb-17 10:30N 55°39' E 015°39'510.8
2018-Feb-17 10:01N 55°41' E 015°48'510.8
2018-Feb-17 09:31N 55°43' E 015°57'510.8
2018-Feb-17 09:01N 55°44' E 016°07'510.8
2018-Feb-17 08:31N 55°46' E 016°16'510.7
2018-Feb-17 08:01N 55°47' E 016°25'610.9
2018-Feb-17 07:30N 55°48' E 016°35'510.8
2018-Feb-17 07:01N 55°50' E 016°44'611.1
2018-Feb-17 06:30N 55°51' E 016°53'611.3
2018-Feb-17 06:01N 55°53' E 017°03'  
2018-Feb-14 21:05N 55°47' E 016°48'412.4
2018-Feb-14 20:45N 55°46' E 016°41'312.3
2018-Feb-14 20:30N 55°46' E 016°36'612.4
2018-Feb-14 20:00N 55°44' E 016°25'612.5
2018-Feb-14 19:30N 55°42' E 016°14'612.4
2018-Feb-14 19:00N 55°41' E 016°04'612.5
2018-Feb-14 18:30N 55°39' E 015°53'612.6
2018-Feb-14 18:00N 55°38' E 015°42'612.7
2018-Feb-14 17:30N 55°36' E 015°31'612.7
2018-Feb-14 17:00N 55°34' E 015°21'612.6
2018-Feb-14 16:30N 55°31' E 015°11'612.4
2018-Feb-14 16:00N 55°27' E 015°03'2 4.4
2018-Feb-14 15:30N 55°26' E 014°59'1 2.5
2018-Feb-14 15:00N 55°25' E 014°58'3 5.1
2018-Feb-14 14:30N 55°24' E 014°54'611.7
2018-Feb-14 13:58N 55°20' E 014°45'5 9.8
2018-Feb-14 13:30N 55°17' E 014°39'612.7
2018-Feb-14 13:00N 55°13' E 014°31'612.7
2018-Feb-14 12:30N 55°08' E 014°23'612.8
2018-Feb-14 12:00N 55°04' E 014°15'612.5
2018-Feb-14 11:30N 55°00' E 014°06'3412.7
2018-Feb-14 08:48N 54°49' E 013°09'1012.7
2018-Feb-14 08:02N 54°47' E 012°53'112.7
2018-Feb-14 07:56N 54°47' E 012°51'512.0
2018-Feb-14 07:29N 54°45' E 012°42'712.7
2018-Feb-14 06:57N 54°42' E 012°32'612.7
2018-Feb-14 06:29N 54°38' E 012°23'612.3
2018-Feb-14 05:59N 54°34' E 012°16'612.7
2018-Feb-14 05:30N 54°28' E 012°13'611.8
2018-Feb-14 05:00N 54°24' E 012°05'713.0
2018-Feb-14 04:30N 54°24' E 011°54'612.7
2018-Feb-14 04:00N 54°25' E 011°43'612.9
2018-Feb-14 03:30N 54°28' E 011°33'612.8
2018-Feb-14 03:00N 54°31' E 011°23'612.7
2018-Feb-14 02:30N 54°34' E 011°13'  
Track history (hours):
 
Tides and Currents Weather Stations Pressure Air Temp Water Temp Dewpoint Dewpoint Depression Visibility Wind Speed Wind Dir Waves Ship Positions

Dubai Beauty

Last reported at 2018-Feb-24 02:30 UTC. Time now 2018-Feb-24 16:31 UTC.
Position N 71°03' E 030°26'.

Length 250 m; draft 8 m.

Type: Tanker. MMSI: 538004173.

Date/timePositionNaut miles runAvg speedWind from/ knotsBaromVisibWave heightAir tempDewpointWater temp
2018-Feb-24 02:30N 71°03' E 030°26'5 9.2
2018-Feb-24 02:00N 71°05' E 030°13'5 9.3
2018-Feb-24 01:30N 71°08' E 030°02'5 9.2
2018-Feb-24 00:59N 71°11' E 029°51'4 8.9
2018-Feb-24 00:30N 71°14' E 029°42'4 8.7
2018-Feb-24 00:00N 71°17' E 029°31'4 8.6
2018-Feb-23 23:30N 71°19' E 029°20'131 8.5
2018-Feb-23 08:13N 71°28' E 022°32'2 8.2
2018-Feb-23 07:59N 71°27' E 022°26'4 7.9
2018-Feb-23 07:30N 71°26' E 022°15'4 8.0
2018-Feb-23 07:00N 71°25' E 022°03'4 8.0
2018-Feb-23 06:30N 71°23' E 021°52'510.7
2018-Feb-23 06:00N 71°21' E 021°36'713.4
2018-Feb-23 05:30N 71°18' E 021°17'510.8
2018-Feb-23 05:00N 71°16' E 021°02'4 8.6
2018-Feb-23 04:31N 71°14' E 020°49'4 8.4
2018-Feb-23 04:00N 71°13' E 020°38'4 8.6
2018-Feb-23 03:30N 71°11' E 020°26'4 8.2
2018-Feb-23 03:00N 71°09' E 020°14'4 7.7
2018-Feb-23 02:30N 71°07' E 020°03'4 8.0
2018-Feb-23 02:00N 71°06' E 019°52'  
2018-Feb-19 19:18N 61°21' E 004°12'5310.1
2018-Feb-19 14:01N 60°28' E 004°13'0 8.3
2018-Feb-19 14:00N 60°28' E 004°13'5 8.5
2018-Feb-19 13:26N 60°23' E 004°12'4 9.7
2018-Feb-19 13:01N 60°19' E 004°12'813.8
2018-Feb-19 12:25N 60°10' E 004°12'7610.7
2018-Feb-19 05:18N 58°55' E 004°24'411.5
2018-Feb-19 04:59N 58°52' E 004°28'511.1
2018-Feb-19 04:30N 58°48' E 004°35'610.9
2018-Feb-19 03:58N 58°44' E 004°44'510.7
2018-Feb-19 03:28N 58°40' E 004°50'510.7
2018-Feb-19 02:59N 58°36' E 004°57'611.7
2018-Feb-19 02:30N 58°32' E 005°04'611.6
2018-Feb-19 02:00N 58°28' E 005°11'611.5
2018-Feb-19 01:29N 58°23' E 005°19'611.9
2018-Feb-19 01:00N 58°19' E 005°28'611.9
2018-Feb-19 00:30N 58°15' E 005°36'611.6
2018-Feb-19 00:00N 58°12' E 005°44'611.3
2018-Feb-18 23:30N 58°08' E 005°52'611.5
2018-Feb-18 23:00N 58°04' E 006°00'611.4
2018-Feb-18 22:30N 58°00' E 006°08'611.6
2018-Feb-18 22:00N 57°57' E 006°17'611.6
2018-Feb-18 21:30N 57°53' E 006°25'611.2
2018-Feb-18 20:59N 57°49' E 006°33'510.7
2018-Feb-18 20:30N 57°46' E 006°42'511.2
2018-Feb-18 20:00N 57°46' E 006°52'611.2
2018-Feb-18 19:30N 57°45' E 007°02'611.0
2018-Feb-18 19:00N 57°45' E 007°13'510.6
2018-Feb-18 18:29N 57°45' E 007°23'511.2
2018-Feb-18 18:00N 57°45' E 007°33'611.2
2018-Feb-18 17:30N 57°45' E 007°44'611.3
2018-Feb-18 17:00N 57°45' E 007°54'611.6
2018-Feb-18 16:30N 57°45' E 008°05'6810.6
2018-Feb-18 10:04N 57°49' E 010°13'310.0
2018-Feb-18 09:48N 57°48' E 010°18'310.4
2018-Feb-18 09:29N 57°49' E 010°24'510.6
2018-Feb-18 08:58N 57°50' E 010°34'510.6
2018-Feb-18 08:30N 57°50' E 010°43'5 9.9
2018-Feb-18 08:00N 57°47' E 010°51'611.7
2018-Feb-18 07:30N 57°43' E 010°58'714.6
2018-Feb-18 07:00N 57°38' E 011°07'714.9
2018-Feb-18 06:30N 57°33' E 011°18'714.3
2018-Feb-18 06:00N 57°27' E 011°27'714.5
2018-Feb-18 05:30N 57°20' E 011°31'714.1
2018-Feb-18 05:00N 57°14' E 011°35'714.3
2018-Feb-18 04:30N 57°07' E 011°40'714.2
2018-Feb-18 04:00N 57°00' E 011°44'714.4
2018-Feb-18 03:30N 56°54' E 011°48'2514.3
2018-Feb-18 01:45N 56°30' E 012°01'514.1
2018-Feb-18 01:24N 56°26' E 012°06'614.0
2018-Feb-18 01:00N 56°21' E 012°13'714.1
2018-Feb-18 00:30N 56°16' E 012°21'714.3
2018-Feb-18 00:00N 56°10' E 012°28'611.2
2018-Feb-17 23:30N 56°06' E 012°35'713.5
2018-Feb-17 23:00N 55°60' E 012°41'612.8
2018-Feb-17 22:30N 55°54' E 012°40'713.5
2018-Feb-17 22:00N 55°47' E 012°43'714.3
2018-Feb-17 21:30N 55°40' E 012°41'4 8.7
2018-Feb-17 21:00N 55°36' E 012°42'4 7.7
2018-Feb-17 20:30N 55°32' E 012°43'612.4
2018-Feb-17 20:00N 55°26' E 012°41'713.3
2018-Feb-17 19:30N 55°19' E 012°40'713.4
2018-Feb-17 19:00N 55°16' E 012°51'713.6
2018-Feb-17 18:30N 55°15' E 013°03'713.7
2018-Feb-17 18:00N 55°15' E 013°15'713.8
2018-Feb-17 17:31N 55°14' E 013°27'813.4
2018-Feb-17 16:57N 55°14' E 013°40'613.6
2018-Feb-17 16:30N 55°13' E 013°51'813.7
2018-Feb-17 15:53N 55°13' E 014°06'513.6
2018-Feb-17 15:30N 55°12' E 014°14'713.5
2018-Feb-17 15:00N 55°11' E 014°26'714.3
2018-Feb-17 14:30N 55°15' E 014°36'713.9
2018-Feb-17 13:59N 55°20' E 014°46'4 7.6
2018-Feb-17 13:31N 55°22' E 014°51'5 9.1
2018-Feb-17 13:00N 55°24' E 014°58'511.1
2018-Feb-17 12:31N 55°27' E 015°06'611.2
2018-Feb-17 12:00N 55°30' E 015°15'511.0
2018-Feb-17 11:31N 55°33' E 015°23'511.0
2018-Feb-17 11:01N 55°36' E 015°31'510.9
2018-Feb-17 10:30N 55°39' E 015°39'510.8
2018-Feb-17 10:01N 55°41' E 015°48'510.8
2018-Feb-17 09:31N 55°43' E 015°57'510.8
2018-Feb-17 09:01N 55°44' E 016°07'510.8
2018-Feb-17 08:31N 55°46' E 016°16'510.7
2018-Feb-17 08:01N 55°47' E 016°25'610.9
2018-Feb-17 07:30N 55°48' E 016°35'510.8
2018-Feb-17 07:01N 55°50' E 016°44'611.1
2018-Feb-17 06:30N 55°51' E 016°53'611.3
2018-Feb-17 06:01N 55°53' E 017°03'  
2018-Feb-14 21:05N 55°47' E 016°48'412.4
2018-Feb-14 20:45N 55°46' E 016°41'312.3
2018-Feb-14 20:30N 55°46' E 016°36'612.4
2018-Feb-14 20:00N 55°44' E 016°25'612.5
2018-Feb-14 19:30N 55°42' E 016°14'612.4
2018-Feb-14 19:00N 55°41' E 016°04'612.5
2018-Feb-14 18:30N 55°39' E 015°53'612.6
2018-Feb-14 18:00N 55°38' E 015°42'612.7
2018-Feb-14 17:30N 55°36' E 015°31'612.7
2018-Feb-14 17:00N 55°34' E 015°21'612.6
2018-Feb-14 16:30N 55°31' E 015°11'612.4
2018-Feb-14 16:00N 55°27' E 015°03'2 4.4
2018-Feb-14 15:30N 55°26' E 014°59'1 2.5
2018-Feb-14 15:00N 55°25' E 014°58'3 5.1
2018-Feb-14 14:30N 55°24' E 014°54'611.7
2018-Feb-14 13:58N 55°20' E 014°45'5 9.8
2018-Feb-14 13:30N 55°17' E 014°39'612.7
2018-Feb-14 13:00N 55°13' E 014°31'612.7
2018-Feb-14 12:30N 55°08' E 014°23'612.8
2018-Feb-14 12:00N 55°04' E 014°15'612.5
2018-Feb-14 11:30N 55°00' E 014°06'3412.7
2018-Feb-14 08:48N 54°49' E 013°09'1012.7
2018-Feb-14 08:02N 54°47' E 012°53'112.7
2018-Feb-14 07:56N 54°47' E 012°51'512.0
2018-Feb-14 07:29N 54°45' E 012°42'712.7
2018-Feb-14 06:57N 54°42' E 012°32'612.7
2018-Feb-14 06:29N 54°38' E 012°23'612.3
2018-Feb-14 05:59N 54°34' E 012°16'612.7
2018-Feb-14 05:30N 54°28' E 012°13'611.8
2018-Feb-14 05:00N 54°24' E 012°05'713.0
2018-Feb-14 04:30N 54°24' E 011°54'612.7
2018-Feb-14 04:00N 54°25' E 011°43'612.9
2018-Feb-14 03:30N 54°28' E 011°33'612.8
2018-Feb-14 03:00N 54°31' E 011°23'612.7
2018-Feb-14 02:30N 54°34' E 011°13'  

Dump ship's entire track history